KFRR/FRR METAR and TAF weather

Enter ICAO airport designator
Station Type Date Time Source
KFRR METAR 2020/09/19 02:35 UTC NOAA

KFRR 190235Z AUTO 00000KT 10SM CLR 13/07 A3017 RMK AO1


Station Type Date Time Source
KFRR Decoded METAR 2020/09/19 02:35 UTC NOAA

Station name not available
Sep 18, 2020 - 10:35 PM EDT / 2020.09.19 0235 UTC
Wind: Calm:0
Visibility: 10 mile(s):0
Sky conditions: clear
Temperature: 55 F (13 C)
Dew Point: 44 F (7 C)
Relative Humidity: 66%
Pressure (altimeter): 30.17 in. Hg (1021 hPa)
ob: KFRR 190235Z AUTO 00000KT 10SM CLR 13/07 A3017 RMK AO1
cycle: 2

Station Type Date Time Source
KFRR TAF UTC NOAA

Error!

Example: see airport list